sensor_id;sensor_type;location;lat;lon;timestamp;temperature;humidity
7360;DHT22;3720;48.274;7.796;2023-04-24T00:02:25;12.20;99.90
7360;DHT22;3720;48.274;7.796;2023-04-24T00:04:58;12.30;99.90
7360;DHT22;3720;48.274;7.796;2023-04-24T00:07:33;12.20;99.90
7360;DHT22;3720;48.274;7.796;2023-04-24T00:10:06;12.20;99.90
7360;DHT22;3720;48.274;7.796;2023-04-24T00:12:39;12.20;99.90
7360;DHT22;3720;48.274;7.796;2023-04-24T00:15:11;12.20;99.90
7360;DHT22;3720;48.274;7.796;2023-04-24T00:17:43;12.20;99.90
7360;DHT22;3720;48.274;7.796;2023-04-24T00:20:16;12.30;99.90
7360;DHT22;3720;48.274;7.796;2023-04-24T00:22:49;12.20;99.90
7360;DHT22;3720;48.274;7.796;2023-04-24T00:25:21;12.30;99.90
7360;DHT22;3720;48.274;7.796;2023-04-24T00:27:53;12.20;99.90
7360;DHT22;3720;48.274;7.796;2023-04-24T00:30:25;12.20;99.90
7360;DHT22;3720;48.274;7.796;2023-04-24T00:32:57;12.20;99.90
7360;DHT22;3720;48.274;7.796;2023-04-24T00:35:30;12.10;99.90
7360;DHT22;3720;48.274;7.796;2023-04-24T00:38:02;12.10;99.90
7360;DHT22;3720;48.274;7.796;2023-04-24T00:40:34;12.20;99.90
7360;DHT22;3720;48.274;7.796;2023-04-24T00:43:06;12.10;99.90
7360;DHT22;3720;48.274;7.796;2023-04-24T00:45:38;12.10;99.90
7360;DHT22;3720;48.274;7.796;2023-04-24T00:48:11;12.10;99.90
7360;DHT22;3720;48.274;7.796;2023-04-24T00:50:45;12.10;99.90
7360;DHT22;3720;48.274;7.796;2023-04-24T00:53:17;12.00;99.90
7360;DHT22;3720;48.274;7.796;2023-04-24T00:55:50;12.10;99.90
7360;DHT22;3720;48.274;7.796;2023-04-24T00:58:23;12.10;99.90
7360;DHT22;3720;48.274;7.796;2023-04-24T01:00:56;12.10;99.90
7360;DHT22;3720;48.274;7.796;2023-04-24T01:03:29;12.20;99.90
7360;DHT22;3720;48.274;7.796;2023-04-24T01:06:04;12.20;99.90
7360;DHT22;3720;48.274;7.796;2023-04-24T01:08:37;12.20;99.90
7360;DHT22;3720;48.274;7.796;2023-04-24T01:11:10;12.20;99.90
7360;DHT22;3720;48.274;7.796;2023-04-24T01:13:42;12.20;99.90
7360;DHT22;3720;48.274;7.796;2023-04-24T01:16:14;12.20;99.90
7360;DHT22;3720;48.274;7.796;2023-04-24T01:18:48;12.20;99.90
7360;DHT22;3720;48.274;7.796;2023-04-24T01:21:23;12.20;99.90
7360;DHT22;3720;48.274;7.796;2023-04-24T01:24:00;12.10;99.90
7360;DHT22;3720;48.274;7.796;2023-04-24T01:26:32;12.10;99.90
7360;DHT22;3720;48.274;7.796;2023-04-24T01:29:04;12.10;99.90
7360;DHT22;3720;48.274;7.796;2023-04-24T01:31:36;12.00;99.90
7360;DHT22;3720;48.274;7.796;2023-04-24T01:34:08;12.00;99.90
7360;DHT22;3720;48.274;7.796;2023-04-24T01:36:41;12.00;99.90
7360;DHT22;3720;48.274;7.796;2023-04-24T01:39:16;12.00;99.90
7360;DHT22;3720;48.274;7.796;2023-04-24T01:41:48;11.90;99.90
7360;DHT22;3720;48.274;7.796;2023-04-24T01:44:21;11.90;99.90
7360;DHT22;3720;48.274;7.796;2023-04-24T01:46:54;11.90;99.90
7360;DHT22;3720;48.274;7.796;2023-04-24T01:49:26;11.90;99.90
7360;DHT22;3720;48.274;7.796;2023-04-24T01:51:59;11.80;99.90
7360;DHT22;3720;48.274;7.796;2023-04-24T01:54:32;11.80;99.90
7360;DHT22;3720;48.274;7.796;2023-04-24T01:57:04;11.80;99.90
7360;DHT22;3720;48.274;7.796;2023-04-24T01:59:37;11.90;99.90
7360;DHT22;3720;48.274;7.796;2023-04-24T02:02:09;11.80;99.90
7360;DHT22;3720;48.274;7.796;2023-04-24T02:04:41;11.80;99.90
7360;DHT22;3720;48.274;7.796;2023-04-24T02:07:13;11.80;99.90
7360;DHT22;3720;48.274;7.796;2023-04-24T02:09:46;11.90;99.90
7360;DHT22;3720;48.274;7.796;2023-04-24T02:12:18;11.80;99.90
7360;DHT22;3720;48.274;7.796;2023-04-24T02:14:49;11.80;99.90
7360;DHT22;3720;48.274;7.796;2023-04-24T02:17:21;11.80;99.90
7360;DHT22;3720;48.274;7.796;2023-04-24T02:19:53;11.80;99.90
7360;DHT22;3720;48.274;7.796;2023-04-24T02:22:25;11.80;99.90
7360;DHT22;3720;48.274;7.796;2023-04-24T02:24:59;11.70;99.90
7360;DHT22;3720;48.274;7.796;2023-04-24T02:27:31;11.70;99.90
7360;DHT22;3720;48.274;7.796;2023-04-24T02:30:03;11.70;99.90
7360;DHT22;3720;48.274;7.796;2023-04-24T02:32:35;11.70;99.90
7360;DHT22;3720;48.274;7.796;2023-04-24T02:35:08;11.70;99.90
7360;DHT22;3720;48.274;7.796;2023-04-24T02:37:40;11.70;99.90
7360;DHT22;3720;48.274;7.796;2023-04-24T02:40:13;11.70;99.90
7360;DHT22;3720;48.274;7.796;2023-04-24T02:42:45;11.70;99.90
7360;DHT22;3720;48.274;7.796;2023-04-24T02:45:17;11.80;99.90
7360;DHT22;3720;48.274;7.796;2023-04-24T02:47:49;11.80;99.90
7360;DHT22;3720;48.274;7.796;2023-04-24T02:50:21;11.70;99.90
7360;DHT22;3720;48.274;7.796;2023-04-24T02:52:53;11.80;99.90
7360;DHT22;3720;48.274;7.796;2023-04-24T02:55:26;11.80;99.90
7360;DHT22;3720;48.274;7.796;2023-04-24T02:57:58;11.70;99.90
7360;DHT22;3720;48.274;7.796;2023-04-24T03:00:30;11.70;99.90
7360;DHT22;3720;48.274;7.796;2023-04-24T03:03:02;11.60;99.90
7360;DHT22;3720;48.274;7.796;2023-04-24T03:05:34;11.70;99.90
7360;DHT22;3720;48.274;7.796;2023-04-24T03:08:06;11.60;99.90
7360;DHT22;3720;48.274;7.796;2023-04-24T03:10:40;11.60;99.90
7360;DHT22;3720;48.274;7.796;2023-04-24T03:13:12;11.60;99.90
7360;DHT22;3720;48.274;7.796;2023-04-24T03:15:44;11.60;99.90
7360;DHT22;3720;48.274;7.796;2023-04-24T03:18:17;11.50;99.90
7360;DHT22;3720;48.274;7.796;2023-04-24T03:20:49;11.50;99.90
7360;DHT22;3720;48.274;7.796;2023-04-24T03:23:21;11.50;99.90
7360;DHT22;3720;48.274;7.796;2023-04-24T03:25:55;11.40;99.90
7360;DHT22;3720;48.274;7.796;2023-04-24T03:28:26;11.40;99.90
7360;DHT22;3720;48.274;7.796;2023-04-24T03:30:58;11.40;99.90
7360;DHT22;3720;48.274;7.796;2023-04-24T03:33:30;11.40;99.90
7360;DHT22;3720;48.274;7.796;2023-04-24T03:36:02;11.40;99.90
7360;DHT22;3720;48.274;7.796;2023-04-24T03:38:35;11.40;99.90
7360;DHT22;3720;48.274;7.796;2023-04-24T03:41:08;11.30;99.90
7360;DHT22;3720;48.274;7.796;2023-04-24T03:43:40;11.30;99.90
7360;DHT22;3720;48.274;7.796;2023-04-24T03:46:12;11.30;99.90
7360;DHT22;3720;48.274;7.796;2023-04-24T03:48:44;11.30;99.90
7360;DHT22;3720;48.274;7.796;2023-04-24T03:51:16;11.30;99.90
7360;DHT22;3720;48.274;7.796;2023-04-24T03:53:48;11.20;99.90
7360;DHT22;3720;48.274;7.796;2023-04-24T03:56:22;11.10;99.90
7360;DHT22;3720;48.274;7.796;2023-04-24T03:58:54;11.10;99.90
7360;DHT22;3720;48.274;7.796;2023-04-24T04:01:26;11.00;99.90
7360;DHT22;3720;48.274;7.796;2023-04-24T04:03:58;10.90;99.90
7360;DHT22;3720;48.274;7.796;2023-04-24T04:06:30;10.90;99.90
7360;DHT22;3720;48.274;7.796;2023-04-24T04:09:02;10.90;99.90
7360;DHT22;3720;48.274;7.796;2023-04-24T04:11:36;10.80;99.90
7360;DHT22;3720;48.274;7.796;2023-04-24T04:14:08;10.80;99.90
7360;DHT22;3720;48.274;7.796;2023-04-24T04:16:40;10.80;99.90
7360;DHT22;3720;48.274;7.796;2023-04-24T04:19:12;10.80;99.90
7360;DHT22;3720;48.274;7.796;2023-04-24T04:21:44;10.80;99.90
7360;DHT22;3720;48.274;7.796;2023-04-24T04:24:21;10.70;99.90
7360;DHT22;3720;48.274;7.796;2023-04-24T04:26:55;10.70;99.90
7360;DHT22;3720;48.274;7.796;2023-04-24T04:29:28;10.60;99.90
7360;DHT22;3720;48.274;7.796;2023-04-24T04:32:01;10.60;99.90
7360;DHT22;3720;48.274;7.796;2023-04-24T04:34:33;10.70;99.90
7360;DHT22;3720;48.274;7.796;2023-04-24T04:37:08;10.70;99.90
7360;DHT22;3720;48.274;7.796;2023-04-24T04:39:41;10.70;99.90
7360;DHT22;3720;48.274;7.796;2023-04-24T04:42:14;10.70;99.90
7360;DHT22;3720;48.274;7.796;2023-04-24T04:44:47;10.70;99.90
7360;DHT22;3720;48.274;7.796;2023-04-24T04:47:21;10.70;99.90
7360;DHT22;3720;48.274;7.796;2023-04-24T04:49:53;10.60;99.90
7360;DHT22;3720;48.274;7.796;2023-04-24T04:52:25;10.60;99.90
7360;DHT22;3720;48.274;7.796;2023-04-24T04:54:57;10.60;99.90
7360;DHT22;3720;48.274;7.796;2023-04-24T04:57:32;10.50;99.90
7360;DHT22;3720;48.274;7.796;2023-04-24T05:00:05;10.60;99.90
7360;DHT22;3720;48.274;7.796;2023-04-24T05:02:38;10.60;99.90
7360;DHT22;3720;48.274;7.796;2023-04-24T05:05:10;10.60;99.90
7360;DHT22;3720;48.274;7.796;2023-04-24T05:07:42;10.70;99.90
7360;DHT22;3720;48.274;7.796;2023-04-24T05:10:14;10.70;99.90
7360;DHT22;3720;48.274;7.796;2023-04-24T05:12:48;10.70;99.90
7360;DHT22;3720;48.274;7.796;2023-04-24T05:15:20;10.70;99.90
7360;DHT22;3720;48.274;7.796;2023-04-24T05:17:51;10.80;99.90
7360;DHT22;3720;48.274;7.796;2023-04-24T05:20:24;10.80;99.90
7360;DHT22;3720;48.274;7.796;2023-04-24T05:22:55;10.70;99.90
7360;DHT22;3720;48.274;7.796;2023-04-24T05:25:27;10.70;99.90
7360;DHT22;3720;48.274;7.796;2023-04-24T05:28:01;10.70;99.90
7360;DHT22;3720;48.274;7.796;2023-04-24T05:30:33;10.70;99.90
7360;DHT22;3720;48.274;7.796;2023-04-24T05:33:05;10.70;99.90
7360;DHT22;3720;48.274;7.796;2023-04-24T05:35:37;10.60;99.90
7360;DHT22;3720;48.274;7.796;2023-04-24T05:38:09;10.70;99.90
7360;DHT22;3720;48.274;7.796;2023-04-24T05:40:41;10.70;99.90
7360;DHT22;3720;48.274;7.796;2023-04-24T05:43:14;10.70;99.90
7360;DHT22;3720;48.274;7.796;2023-04-24T05:45:46;10.70;99.90
7360;DHT22;3720;48.274;7.796;2023-04-24T05:48:18;10.80;99.90
7360;DHT22;3720;48.274;7.796;2023-04-24T05:50:50;10.80;99.90
7360;DHT22;3720;48.274;7.796;2023-04-24T05:53:22;10.80;99.90
7360;DHT22;3720;48.274;7.796;2023-04-24T05:55:54;10.80;99.90
7360;DHT22;3720;48.274;7.796;2023-04-24T05:58:28;10.80;99.90
7360;DHT22;3720;48.274;7.796;2023-04-24T06:01:00;10.70;99.90
7360;DHT22;3720;48.274;7.796;2023-04-24T06:03:33;10.70;99.90
7360;DHT22;3720;48.274;7.796;2023-04-24T06:06:06;10.70;99.90
7360;DHT22;3720;48.274;7.796;2023-04-24T06:08:38;10.80;99.90
7360;DHT22;3720;48.274;7.796;2023-04-24T06:11:10;10.80;99.90
7360;DHT22;3720;48.274;7.796;2023-04-24T06:13:43;10.80;99.90
7360;DHT22;3720;48.274;7.796;2023-04-24T06:16:15;10.80;99.90
7360;DHT22;3720;48.274;7.796;2023-04-24T06:18:47;10.80;99.90
7360;DHT22;3720;48.274;7.796;2023-04-24T06:21:19;10.80;99.90
7360;DHT22;3720;48.274;7.796;2023-04-24T06:23:51;10.70;99.90
7360;DHT22;3720;48.274;7.796;2023-04-24T06:26:23;10.70;99.90
7360;DHT22;3720;48.274;7.796;2023-04-24T06:28:58;10.70;99.90
7360;DHT22;3720;48.274;7.796;2023-04-24T06:31:30;10.60;99.90
7360;DHT22;3720;48.274;7.796;2023-04-24T06:34:07;10.60;99.90
7360;DHT22;3720;48.274;7.796;2023-04-24T06:36:39;10.70;99.90
7360;DHT22;3720;48.274;7.796;2023-04-24T06:39:11;10.80;99.90
7360;DHT22;3720;48.274;7.796;2023-04-24T06:41:43;10.90;99.90
7360;DHT22;3720;48.274;7.796;2023-04-24T06:44:16;11.00;99.90
7360;DHT22;3720;48.274;7.796;2023-04-24T06:46:48;11.10;99.90
7360;DHT22;3720;48.274;7.796;2023-04-24T06:49:20;11.00;99.90
7360;DHT22;3720;48.274;7.796;2023-04-24T06:51:52;11.10;99.90
7360;DHT22;3720;48.274;7.796;2023-04-24T06:54:24;11.20;99.90
7360;DHT22;3720;48.274;7.796;2023-04-24T06:56:56;11.30;99.90
7360;DHT22;3720;48.274;7.796;2023-04-24T06:59:30;11.40;99.90
7360;DHT22;3720;48.274;7.796;2023-04-24T07:02:03;11.40;99.90
7360;DHT22;3720;48.274;7.796;2023-04-24T07:04:35;11.50;99.90
7360;DHT22;3720;48.274;7.796;2023-04-24T07:07:07;11.60;99.90
7360;DHT22;3720;48.274;7.796;2023-04-24T07:09:40;11.80;99.90
7360;DHT22;3720;48.274;7.796;2023-04-24T07:12:12;11.90;99.90
7360;DHT22;3720;48.274;7.796;2023-04-24T07:14:46;12.00;99.90
7360;DHT22;3720;48.274;7.796;2023-04-24T07:17:18;12.30;99.90
7360;DHT22;3720;48.274;7.796;2023-04-24T07:19:50;12.40;99.90
7360;DHT22;3720;48.274;7.796;2023-04-24T07:22:22;12.60;99.90
7360;DHT22;3720;48.274;7.796;2023-04-24T07:24:54;12.50;99.90
7360;DHT22;3720;48.274;7.796;2023-04-24T07:27:26;12.40;99.90
7360;DHT22;3720;48.274;7.796;2023-04-24T07:29:59;12.40;99.90
7360;DHT22;3720;48.274;7.796;2023-04-24T07:32:31;12.40;99.90
7360;DHT22;3720;48.274;7.796;2023-04-24T07:35:04;12.30;99.90
7360;DHT22;3720;48.274;7.796;2023-04-24T07:37:36;12.20;99.90
7360;DHT22;3720;48.274;7.796;2023-04-24T07:40:09;12.10;99.90
7360;DHT22;3720;48.274;7.796;2023-04-24T07:42:42;12.10;99.90
7360;DHT22;3720;48.274;7.796;2023-04-24T07:45:16;12.10;99.90
7360;DHT22;3720;48.274;7.796;2023-04-24T07:47:48;12.00;99.90
7360;DHT22;3720;48.274;7.796;2023-04-24T07:50:21;12.00;99.90
7360;DHT22;3720;48.274;7.796;2023-04-24T07:52:54;12.00;99.90
7360;DHT22;3720;48.274;7.796;2023-04-24T07:55:25;11.90;99.90
7360;DHT22;3720;48.274;7.796;2023-04-24T07:57:57;12.00;99.90
7360;DHT22;3720;48.274;7.796;2023-04-24T08:00:31;11.90;99.90
7360;DHT22;3720;48.274;7.796;2023-04-24T08:03:03;12.00;99.90
7360;DHT22;3720;48.274;7.796;2023-04-24T08:05:35;12.10;99.90
7360;DHT22;3720;48.274;7.796;2023-04-24T08:08:07;12.00;99.90
7360;DHT22;3720;48.274;7.796;2023-04-24T08:10:39;11.90;99.90
7360;DHT22;3720;48.274;7.796;2023-04-24T08:13:11;11.90;99.90
7360;DHT22;3720;48.274;7.796;2023-04-24T08:15:44;11.90;99.90
7360;DHT22;3720;48.274;7.796;2023-04-24T08:18:16;11.80;99.90
7360;DHT22;3720;48.274;7.796;2023-04-24T08:20:49;11.90;99.90
7360;DHT22;3720;48.274;7.796;2023-04-24T08:23:21;11.90;99.90
7360;DHT22;3720;48.274;7.796;2023-04-24T08:25:52;12.00;99.90
7360;DHT22;3720;48.274;7.796;2023-04-24T08:28:24;12.10;99.90
7360;DHT22;3720;48.274;7.796;2023-04-24T08:30:58;12.10;99.90
7360;DHT22;3720;48.274;7.796;2023-04-24T08:33:29;12.10;99.90
7360;DHT22;3720;48.274;7.796;2023-04-24T08:36:05;12.10;99.90
7360;DHT22;3720;48.274;7.796;2023-04-24T08:38:37;12.10;99.90
7360;DHT22;3720;48.274;7.796;2023-04-24T08:41:10;12.10;99.90
7360;DHT22;3720;48.274;7.796;2023-04-24T08:43:42;12.10;99.90
7360;DHT22;3720;48.274;7.796;2023-04-24T08:46:16;12.20;99.90
7360;DHT22;3720;48.274;7.796;2023-04-24T08:48:51;12.30;99.90
7360;DHT22;3720;48.274;7.796;2023-04-24T08:51:26;12.50;99.90
7360;DHT22;3720;48.274;7.796;2023-04-24T08:53:59;12.60;99.90
7360;DHT22;3720;48.274;7.796;2023-04-24T08:56:33;12.70;99.90
7360;DHT22;3720;48.274;7.796;2023-04-24T08:59:08;12.80;99.90
7360;DHT22;3720;48.274;7.796;2023-04-24T09:01:43;12.80;99.90
7360;DHT22;3720;48.274;7.796;2023-04-24T09:04:17;12.80;99.90
7360;DHT22;3720;48.274;7.796;2023-04-24T09:06:50;12.60;99.90
7360;DHT22;3720;48.274;7.796;2023-04-24T09:09:23;12.50;99.90
7360;DHT22;3720;48.274;7.796;2023-04-24T09:11:55;12.40;99.90
7360;DHT22;3720;48.274;7.796;2023-04-24T09:14:28;12.20;99.90
7360;DHT22;3720;48.274;7.796;2023-04-24T09:17:03;12.20;99.90
7360;DHT22;3720;48.274;7.796;2023-04-24T09:19:36;12.10;99.90
7360;DHT22;3720;48.274;7.796;2023-04-24T09:22:09;12.00;99.90
7360;DHT22;3720;48.274;7.796;2023-04-24T09:24:41;12.00;99.90
7360;DHT22;3720;48.274;7.796;2023-04-24T09:27:13;12.00;99.90
7360;DHT22;3720;48.274;7.796;2023-04-24T09:29:54;12.20;99.90
7360;DHT22;3720;48.274;7.796;2023-04-24T09:32:28;12.30;99.90
7360;DHT22;3720;48.274;7.796;2023-04-24T09:35:08;12.40;99.90
7360;DHT22;3720;48.274;7.796;2023-04-24T09:37:42;12.50;99.90
7360;DHT22;3720;48.274;7.796;2023-04-24T09:40:16;12.60;99.90
7360;DHT22;3720;48.274;7.796;2023-04-24T09:42:53;12.40;99.90
7360;DHT22;3720;48.274;7.796;2023-04-24T09:45:27;12.30;99.90
7360;DHT22;3720;48.274;7.796;2023-04-24T09:48:01;12.20;99.90
7360;DHT22;3720;48.274;7.796;2023-04-24T09:50:33;12.20;99.90
7360;DHT22;3720;48.274;7.796;2023-04-24T09:53:06;12.10;99.90
7360;DHT22;3720;48.274;7.796;2023-04-24T09:55:39;12.10;99.90
7360;DHT22;3720;48.274;7.796;2023-04-24T09:58:12;12.10;99.90
7360;DHT22;3720;48.274;7.796;2023-04-24T10:00:45;12.20;99.90
7360;DHT22;3720;48.274;7.796;2023-04-24T10:03:19;12.20;99.90
7360;DHT22;3720;48.274;7.796;2023-04-24T10:05:51;12.20;99.90
7360;DHT22;3720;48.274;7.796;2023-04-24T10:08:24;12.20;99.90
7360;DHT22;3720;48.274;7.796;2023-04-24T10:10:56;12.20;99.90
7360;DHT22;3720;48.274;7.796;2023-04-24T10:13:29;12.20;99.90
7360;DHT22;3720;48.274;7.796;2023-04-24T10:16:03;12.20;99.90
7360;DHT22;3720;48.274;7.796;2023-04-24T10:18:38;12.10;99.90
7360;DHT22;3720;48.274;7.796;2023-04-24T10:21:11;11.90;99.90
7360;DHT22;3720;48.274;7.796;2023-04-24T10:23:44;11.90;99.90
7360;DHT22;3720;48.274;7.796;2023-04-24T10:26:17;11.80;99.90
7360;DHT22;3720;48.274;7.796;2023-04-24T10:28:50;11.80;99.90
7360;DHT22;3720;48.274;7.796;2023-04-24T10:31:22;11.70;99.90
7360;DHT22;3720;48.274;7.796;2023-04-24T10:33:56;11.80;99.90
7360;DHT22;3720;48.274;7.796;2023-04-24T10:36:30;11.80;99.90
7360;DHT22;3720;48.274;7.796;2023-04-24T10:39:06;11.80;99.90
7360;DHT22;3720;48.274;7.796;2023-04-24T10:41:41;11.80;99.90
7360;DHT22;3720;48.274;7.796;2023-04-24T10:44:14;11.80;99.90
7360;DHT22;3720;48.274;7.796;2023-04-24T10:46:47;11.80;99.90
7360;DHT22;3720;48.274;7.796;2023-04-24T10:49:31;11.90;99.90
7360;DHT22;3720;48.274;7.796;2023-04-24T10:52:04;11.90;99.90
7360;DHT22;3720;48.274;7.796;2023-04-24T10:54:41;11.90;99.90
7360;DHT22;3720;48.274;7.796;2023-04-24T10:57:27;12.00;99.90
7360;DHT22;3720;48.274;7.796;2023-04-24T11:00:18;12.10;99.90
7360;DHT22;3720;48.274;7.796;2023-04-24T11:02:50;12.20;99.90
7360;DHT22;3720;48.274;7.796;2023-04-24T11:05:51;12.30;99.90
7360;DHT22;3720;48.274;7.796;2023-04-24T11:08:29;12.40;99.90
7360;DHT22;3720;48.274;7.796;2023-04-24T11:11:03;12.40;99.90
7360;DHT22;3720;48.274;7.796;2023-04-24T11:14:09;12.30;99.90
7360;DHT22;3720;48.274;7.796;2023-04-24T11:16:47;12.30;99.90
7360;DHT22;3720;48.274;7.796;2023-04-24T11:19:24;12.40;99.90
7360;DHT22;3720;48.274;7.796;2023-04-24T11:22:00;12.30;99.90
7360;DHT22;3720;48.274;7.796;2023-04-24T11:24:38;12.20;99.90
7360;DHT22;3720;48.274;7.796;2023-04-24T11:27:13;12.20;99.90
7360;DHT22;3720;48.274;7.796;2023-04-24T11:29:48;12.10;99.90
7360;DHT22;3720;48.274;7.796;2023-04-24T11:32:25;12.20;99.90
7360;DHT22;3720;48.274;7.796;2023-04-24T11:34:59;12.10;99.90
7360;DHT22;3720;48.274;7.796;2023-04-24T11:37:36;12.10;99.90
7360;DHT22;3720;48.274;7.796;2023-04-24T11:40:11;12.10;99.90
7360;DHT22;3720;48.274;7.796;2023-04-24T11:42:45;12.10;99.90
7360;DHT22;3720;48.274;7.796;2023-04-24T11:45:22;12.20;99.90
7360;DHT22;3720;48.274;7.796;2023-04-24T11:47:55;12.30;99.90
7360;DHT22;3720;48.274;7.796;2023-04-24T11:50:27;12.40;99.90
7360;DHT22;3720;48.274;7.796;2023-04-24T11:53:01;12.40;99.90
7360;DHT22;3720;48.274;7.796;2023-04-24T11:55:33;12.50;99.90
7360;DHT22;3720;48.274;7.796;2023-04-24T11:58:05;12.70;99.90
7360;DHT22;3720;48.274;7.796;2023-04-24T12:00:40;12.90;99.90
7360;DHT22;3720;48.274;7.796;2023-04-24T12:03:13;12.90;99.90
7360;DHT22;3720;48.274;7.796;2023-04-24T12:05:45;13.00;99.90
7360;DHT22;3720;48.274;7.796;2023-04-24T12:08:28;13.00;99.90
7360;DHT22;3720;48.274;7.796;2023-04-24T12:11:02;13.10;99.90
7360;DHT22;3720;48.274;7.796;2023-04-24T12:13:35;13.20;99.90
7360;DHT22;3720;48.274;7.796;2023-04-24T12:16:07;13.20;99.90
7360;DHT22;3720;48.274;7.796;2023-04-24T12:18:43;13.20;99.90
7360;DHT22;3720;48.274;7.796;2023-04-24T12:21:18;13.40;99.90
7360;DHT22;3720;48.274;7.796;2023-04-24T12:23:54;13.40;99.90
7360;DHT22;3720;48.274;7.796;2023-04-24T12:26:27;13.40;99.90
7360;DHT22;3720;48.274;7.796;2023-04-24T12:29:01;13.40;99.90
7360;DHT22;3720;48.274;7.796;2023-04-24T12:31:35;13.40;99.90
7360;DHT22;3720;48.274;7.796;2023-04-24T12:34:17;13.30;99.90
7360;DHT22;3720;48.274;7.796;2023-04-24T12:36:51;13.30;99.90
7360;DHT22;3720;48.274;7.796;2023-04-24T12:39:24;13.30;99.90
7360;DHT22;3720;48.274;7.796;2023-04-24T12:41:57;13.30;99.90
7360;DHT22;3720;48.274;7.796;2023-04-24T12:44:32;13.10;99.90
7360;DHT22;3720;48.274;7.796;2023-04-24T12:47:04;13.10;99.90
7360;DHT22;3720;48.274;7.796;2023-04-24T12:49:36;13.10;99.90
7360;DHT22;3720;48.274;7.796;2023-04-24T12:52:08;13.10;99.90
7360;DHT22;3720;48.274;7.796;2023-04-24T12:54:42;13.10;99.90
7360;DHT22;3720;48.274;7.796;2023-04-24T12:57:14;13.20;99.90
7360;DHT22;3720;48.274;7.796;2023-04-24T12:59:46;13.20;99.90
7360;DHT22;3720;48.274;7.796;2023-04-24T13:02:45;13.30;99.90
7360;DHT22;3720;48.274;7.796;2023-04-24T13:05:18;13.50;99.90
7360;DHT22;3720;48.274;7.796;2023-04-24T13:07:50;13.60;99.90
7360;DHT22;3720;48.274;7.796;2023-04-24T13:10:22;13.60;99.90
7360;DHT22;3720;48.274;7.796;2023-04-24T13:12:54;13.70;99.90
7360;DHT22;3720;48.274;7.796;2023-04-24T13:15:26;13.80;99.90
7360;DHT22;3720;48.274;7.796;2023-04-24T13:18:00;13.80;99.90
7360;DHT22;3720;48.274;7.796;2023-04-24T13:20:32;13.90;99.90
7360;DHT22;3720;48.274;7.796;2023-04-24T13:23:05;13.90;99.90
7360;DHT22;3720;48.274;7.796;2023-04-24T13:25:37;13.90;99.90
7360;DHT22;3720;48.274;7.796;2023-04-24T13:28:09;13.90;99.90
7360;DHT22;3720;48.274;7.796;2023-04-24T13:30:41;14.00;99.90
7360;DHT22;3720;48.274;7.796;2023-04-24T13:33:14;14.00;99.90
7360;DHT22;3720;48.274;7.796;2023-04-24T13:35:46;14.20;99.90
7360;DHT22;3720;48.274;7.796;2023-04-24T13:38:18;14.30;99.90
7360;DHT22;3720;48.274;7.796;2023-04-24T13:40:52;14.40;99.90
7360;DHT22;3720;48.274;7.796;2023-04-24T13:43:24;14.50;99.90
7360;DHT22;3720;48.274;7.796;2023-04-24T13:45:56;14.60;99.90
7360;DHT22;3720;48.274;7.796;2023-04-24T13:48:31;14.60;99.90
7360;DHT22;3720;48.274;7.796;2023-04-24T13:51:03;14.70;99.90
7360;DHT22;3720;48.274;7.796;2023-04-24T13:53:35;14.80;99.90
7360;DHT22;3720;48.274;7.796;2023-04-24T13:56:09;14.80;99.90
7360;DHT22;3720;48.274;7.796;2023-04-24T13:58:43;15.00;99.90
7360;DHT22;3720;48.274;7.796;2023-04-24T14:01:15;15.00;99.90
7360;DHT22;3720;48.274;7.796;2023-04-24T14:03:49;15.00;99.90
7360;DHT22;3720;48.274;7.796;2023-04-24T14:06:21;15.10;99.90
7360;DHT22;3720;48.274;7.796;2023-04-24T14:08:54;15.20;99.90
7360;DHT22;3720;48.274;7.796;2023-04-24T14:11:26;15.30;99.90
7360;DHT22;3720;48.274;7.796;2023-04-24T14:13:58;15.30;99.90
7360;DHT22;3720;48.274;7.796;2023-04-24T14:16:31;15.40;99.90
7360;DHT22;3720;48.274;7.796;2023-04-24T14:19:04;15.50;99.90
7360;DHT22;3720;48.274;7.796;2023-04-24T14:21:37;15.70;99.90
7360;DHT22;3720;48.274;7.796;2023-04-24T14:24:09;15.80;99.90
7360;DHT22;3720;48.274;7.796;2023-04-24T14:26:41;15.90;99.90
7360;DHT22;3720;48.274;7.796;2023-04-24T14:29:13;16.00;99.90
7360;DHT22;3720;48.274;7.796;2023-04-24T14:31:45;16.40;99.90
7360;DHT22;3720;48.274;7.796;2023-04-24T14:34:18;16.50;99.90
7360;DHT22;3720;48.274;7.796;2023-04-24T14:36:52;16.50;99.90
7360;DHT22;3720;48.274;7.796;2023-04-24T14:39:24;16.40;99.90
7360;DHT22;3720;48.274;7.796;2023-04-24T14:41:56;16.30;99.90
7360;DHT22;3720;48.274;7.796;2023-04-24T14:44:28;16.30;99.90
7360;DHT22;3720;48.274;7.796;2023-04-24T14:47:00;16.20;99.90
7360;DHT22;3720;48.274;7.796;2023-04-24T14:49:33;16.10;99.90
7360;DHT22;3720;48.274;7.796;2023-04-24T14:52:05;16.10;99.90
7360;DHT22;3720;48.274;7.796;2023-04-24T14:54:37;16.10;99.90
7360;DHT22;3720;48.274;7.796;2023-04-24T14:57:09;16.00;99.90
7360;DHT22;3720;48.274;7.796;2023-04-24T14:59:41;16.10;99.90
7360;DHT22;3720;48.274;7.796;2023-04-24T15:02:13;16.10;99.90
7360;DHT22;3720;48.274;7.796;2023-04-24T15:04:47;16.10;99.90
7360;DHT22;3720;48.274;7.796;2023-04-24T15:07:19;16.10;99.90
7360;DHT22;3720;48.274;7.796;2023-04-24T15:09:51;16.00;99.90
7360;DHT22;3720;48.274;7.796;2023-04-24T15:12:22;15.90;99.90
7360;DHT22;3720;48.274;7.796;2023-04-24T15:14:55;15.80;99.90
7360;DHT22;3720;48.274;7.796;2023-04-24T15:17:27;15.70;99.90
7360;DHT22;3720;48.274;7.796;2023-04-24T15:20:00;15.70;99.90
7360;DHT22;3720;48.274;7.796;2023-04-24T15:22:33;15.80;99.90
7360;DHT22;3720;48.274;7.796;2023-04-24T15:25:06;15.80;99.90
7360;DHT22;3720;48.274;7.796;2023-04-24T15:27:42;15.80;99.90
7360;DHT22;3720;48.274;7.796;2023-04-24T15:30:14;15.70;99.90
7360;DHT22;3720;48.274;7.796;2023-04-24T15:32:46;15.70;99.90
7360;DHT22;3720;48.274;7.796;2023-04-24T15:35:19;15.60;99.90
7360;DHT22;3720;48.274;7.796;2023-04-24T15:37:51;15.50;99.90
7360;DHT22;3720;48.274;7.796;2023-04-24T15:40:23;15.50;99.90
7360;DHT22;3720;48.274;7.796;2023-04-24T15:42:55;15.40;99.90
7360;DHT22;3720;48.274;7.796;2023-04-24T15:45:27;15.40;99.90
7360;DHT22;3720;48.274;7.796;2023-04-24T15:48:00;15.40;99.90
7360;DHT22;3720;48.274;7.796;2023-04-24T15:50:33;15.40;99.90
7360;DHT22;3720;48.274;7.796;2023-04-24T15:53:05;15.40;99.90
7360;DHT22;3720;48.274;7.796;2023-04-24T15:55:37;15.40;99.90
7360;DHT22;3720;48.274;7.796;2023-04-24T15:58:10;15.20;99.90
7360;DHT22;3720;48.274;7.796;2023-04-24T16:00:42;15.00;99.90
7360;DHT22;3720;48.274;7.796;2023-04-24T16:03:13;15.00;99.90
7360;DHT22;3720;48.274;7.796;2023-04-24T16:05:47;15.00;99.90
7360;DHT22;3720;48.274;7.796;2023-04-24T16:08:19;14.90;99.90
7360;DHT22;3720;48.274;7.796;2023-04-24T16:10:52;14.90;99.90
7360;DHT22;3720;48.274;7.796;2023-04-24T16:13:23;14.90;99.90
7360;DHT22;3720;48.274;7.796;2023-04-24T16:15:56;14.80;99.90
7360;DHT22;3720;48.274;7.796;2023-04-24T16:18:28;14.70;99.90
7360;DHT22;3720;48.274;7.796;2023-04-24T16:21:01;14.70;99.90
7360;DHT22;3720;48.274;7.796;2023-04-24T16:23:33;14.60;99.90
7360;DHT22;3720;48.274;7.796;2023-04-24T16:26:05;14.60;99.90
7360;DHT22;3720;48.274;7.796;2023-04-24T16:28:37;14.60;99.90
7360;DHT22;3720;48.274;7.796;2023-04-24T16:31:10;14.50;99.90
7360;DHT22;3720;48.274;7.796;2023-04-24T16:33:42;14.40;99.90
7360;DHT22;3720;48.274;7.796;2023-04-24T16:36:15;14.40;99.90
7360;DHT22;3720;48.274;7.796;2023-04-24T16:38:47;14.30;99.90
7360;DHT22;3720;48.274;7.796;2023-04-24T16:41:19;14.20;99.90